Time;durP1;ratioP1;P1;durP2;ratioP2;P2;SDS_P1;SDS_P2;PMS_P1;PMS_P2;Temp;Humidity;BMP_temperature;BMP_pressure;BME280_temperature;BME280_humidity;BME280_pressure;Samples;Min_cycle;Max_cycle;Signal;HPM_P1;HPM_P2
2022/06/26 00:00:19;;;;;;;3.80;2.70;;;18.10;99.90;;;;;;5071741;28;20620;-85
2022/06/26 00:02:46;;;;;;;4.20;2.55;;;18.10;99.90;;;;;;5073183;28;20179;-84
2022/06/26 00:05:12;;;;;;;4.68;2.72;;;18.10;99.90;;;;;;5073630;28;20186;-83
2022/06/26 00:07:38;;;;;;;2.97;2.35;;;18.10;99.90;;;;;;5072182;28;20619;-84
2022/06/26 00:10:05;;;;;;;4.82;3.20;;;18.10;99.90;;;;;;5073222;28;20183;-84
2022/06/26 00:12:31;;;;;;;3.63;2.67;;;18.20;99.90;;;;;;5072618;28;20535;-84
2022/06/26 00:14:56;;;;;;;3.55;2.72;;;18.10;99.90;;;;;;5072170;28;20190;-83
2022/06/26 00:17:22;;;;;;;4.18;2.60;;;18.20;99.90;;;;;;5073110;28;20297;-84
2022/06/26 00:19:48;;;;;;;3.97;3.03;;;18.20;99.90;;;;;;5072172;28;20175;-84
2022/06/26 00:22:14;;;;;;;3.83;2.30;;;18.20;99.90;;;;;;5072308;28;20510;-84
2022/06/26 00:24:42;;;;;;;3.33;2.92;;;18.30;99.90;;;;;;5075657;28;20240;-83
2022/06/26 00:27:07;;;;;;;3.35;2.08;;;18.20;99.90;;;;;;5077258;28;20186;-83
2022/06/26 00:29:34;;;;;;;2.90;2.60;;;18.20;99.90;;;;;;5084189;28;20250;-83
2022/06/26 00:32:01;;;;;;;3.35;2.40;;;18.00;99.90;;;;;;5086907;28;20184;-83
2022/06/26 00:34:27;;;;;;;3.08;2.80;;;18.00;99.90;;;;;;5081861;28;20266;-84
2022/06/26 00:36:53;;;;;;;4.57;2.85;;;18.00;99.90;;;;;;5077776;28;20179;-83
2022/06/26 00:39:19;;;;;;;3.88;3.08;;;18.00;99.90;;;;;;5075890;28;20177;-83
2022/06/26 00:41:45;;;;;;;4.18;2.85;;;17.90;99.90;;;;;;5075366;28;20197;-83
2022/06/26 00:44:19;;;;;;;4.75;3.08;;;17.80;99.90;;;;;;5076637;28;20167;-83
2022/06/26 00:46:45;;;;;;;3.80;2.45;;;17.80;99.90;;;;;;5076728;28;20162;-83
2022/06/26 00:49:11;;;;;;;4.38;3.20;;;17.70;99.90;;;;;;5076786;28;20164;-83
2022/06/26 00:51:49;;;;;;;3.83;2.50;;;17.70;99.90;;;;;;5075231;28;20233;-83
2022/06/26 00:54:15;;;;;;;2.88;2.60;;;17.60;99.90;;;;;;5076490;28;20216;-83
2022/06/26 00:56:41;;;;;;;3.53;2.50;;;17.60;99.90;;;;;;5076481;28;20175;-83
2022/06/26 00:59:07;;;;;;;3.45;2.50;;;17.50;99.90;;;;;;5076534;28;20657;-83
2022/06/26 01:01:34;;;;;;;4.40;3.03;;;17.50;99.90;;;;;;5076114;28;20167;-84
2022/06/26 01:04:03;;;;;;;4.05;3.05;;;17.50;99.90;;;;;;5075163;28;20178;-83
2022/06/26 01:06:29;;;;;;;4.30;2.83;;;17.40;99.90;;;;;;5075991;28;20258;-84
2022/06/26 01:08:56;;;;;;;4.65;2.90;;;17.30;99.90;;;;;;5076329;28;20182;-84
2022/06/26 01:11:25;;;;;;;6.50;3.10;;;17.30;99.90;;;;;;5076409;28;20179;-84
2022/06/26 01:13:54;;;;;;;3.78;3.00;;;17.30;99.90;;;;;;5076095;28;20175;-83
2022/06/26 01:16:21;;;;;;;6.65;3.30;;;17.20;99.90;;;;;;5074887;28;20187;-83
2022/06/26 01:18:49;;;;;;;5.55;3.33;;;17.20;99.90;;;;;;5075621;28;20234;-83
2022/06/26 01:21:16;;;;;;;4.82;3.33;;;17.10;99.90;;;;;;5076563;28;20178;-83
2022/06/26 01:23:42;;;;;;;4.55;3.17;;;17.10;99.90;;;;;;5074320;28;20179;-84
2022/06/26 01:26:08;;;;;;;4.70;3.08;;;;;;;;;;5074713;28;20224;-84
2022/06/26 01:28:33;;;;;;;5.32;3.03;;;17.10;99.90;;;;;;5075790;28;20183;-83
2022/06/26 01:30:59;;;;;;;4.28;3.03;;;17.00;99.90;;;;;;5076174;28;20172;-83
2022/06/26 01:33:25;;;;;;;6.45;3.42;;;17.00;99.90;;;;;;5074850;28;20700;-83
2022/06/26 01:35:50;;;;;;;6.65;3.10;;;16.90;99.90;;;;;;5075384;28;20229;-83
2022/06/26 01:38:21;;;;;;;6.55;3.17;;;17.00;99.90;;;;;;5075586;28;20230;-83
2022/06/26 01:40:48;;;;;;;5.45;3.75;;;16.90;99.90;;;;;;5075513;28;20171;-84
2022/06/26 01:43:16;;;;;;;6.32;3.67;;;16.90;99.90;;;;;;5075548;28;20171;-84
2022/06/26 01:45:46;;;;;;;4.60;3.45;;;16.80;99.90;;;;;;5074657;28;20250;-84
2022/06/26 01:48:12;;;;;;;5.32;3.65;;;16.80;99.90;;;;;;5075485;28;20179;-83
2022/06/26 01:50:38;;;;;;;4.90;3.05;;;16.80;99.90;;;;;;5075190;28;20190;-83
2022/06/26 01:53:04;;;;;;;4.57;3.35;;;16.80;99.90;;;;;;5075256;28;20655;-83
2022/06/26 01:55:30;;;;;;;9.10;3.40;;;16.70;99.90;;;;;;5073859;28;20219;-83
2022/06/26 01:57:56;;;;;;;6.28;3.75;;;16.60;99.90;;;;;;5074290;28;20230;-83
2022/06/26 02:00:21;;;;;;;4.72;3.38;;;16.60;99.90;;;;;;5075225;28;20713;-83
2022/06/26 02:02:47;;;;;;;6.35;3.60;;;16.60;99.90;;;;;;5075190;28;20167;-83
2022/06/26 02:05:13;;;;;;;8.27;3.55;;;16.60;99.90;;;;;;5075359;28;20172;-83
2022/06/26 02:07:39;;;;;;;5.68;3.15;;;16.60;99.90;;;;;;5074944;28;20546;-82
2022/06/26 02:15:33;;;;;;;3.90;3.25;;;16.50;99.90;;;;;;5074889;28;20186;-84
2022/06/26 02:17:58;;;;;;;4.28;3.25;;;16.50;99.90;;;;;;5074485;28;20227;-82
2022/06/26 02:20:24;;;;;;;5.07;3.38;;;16.50;99.90;;;;;;5074829;28;20261;-82
2022/06/26 02:22:50;;;;;;;4.50;3.08;;;16.50;99.90;;;;;;5057014;28;20187;-83
2022/06/26 02:25:15;;;;;;;5.60;3.90;;;16.40;99.90;;;;;;5074677;28;20217;-82
2022/06/26 02:27:41;;;;;;;6.43;4.07;;;16.50;99.90;;;;;;5074531;28;20187;-83
2022/06/26 02:30:07;;;;;;;6.15;3.30;;;16.50;99.90;;;;;;5074816;28;20171;-83
2022/06/26 02:32:32;;;;;;;4.25;3.08;;;16.40;99.90;;;;;;5074815;28;20183;-83
2022/06/26 02:34:58;;;;;;;6.07;3.80;;;16.40;99.90;;;;;;5056578;28;20178;-83
2022/06/26 02:37:24;;;;;;;5.05;3.10;;;16.40;99.90;;;;;;5074177;28;20265;-83
2022/06/26 02:39:49;;;;;;;6.20;3.92;;;16.30;99.90;;;;;;5073277;28;20248;-83
2022/06/26 02:42:15;;;;;;;5.70;3.58;;;16.40;99.90;;;;;;5073493;28;20669;-83
2022/06/26 02:44:41;;;;;;;5.18;3.67;;;;;;;;;;5074700;28;20194;-83
2022/06/26 02:47:06;;;;;;;4.82;3.30;;;16.40;99.90;;;;;;5074182;28;20214;-82
2022/06/26 02:49:32;;;;;;;6.07;3.90;;;16.40;99.90;;;;;;5072884;28;20233;-83
2022/06/26 02:51:57;;;;;;;6.10;3.83;;;16.40;99.90;;;;;;5073060;28;20262;-82
2022/06/26 02:54:23;;;;;;;5.50;3.85;;;16.40;99.90;;;;;;5073276;28;20518;-82
2022/06/26 02:56:49;;;;;;;5.53;3.53;;;16.40;99.90;;;;;;5074182;28;20172;-83
2022/06/26 02:59:14;;;;;;;7.13;4.10;;;16.50;99.90;;;;;;5074007;28;20305;-82
2022/06/26 03:01:40;;;;;;;4.57;3.38;;;16.50;99.90;;;;;;5072888;28;20167;-83
2022/06/26 03:04:06;;;;;;;6.68;3.38;;;16.60;99.90;;;;;;5056341;28;20178;-83
2022/06/26 03:06:31;;;;;;;3.85;3.22;;;16.60;99.90;;;;;;5074206;28;20696;-83
2022/06/26 03:08:57;;;;;;;4.25;3.00;;;16.60;99.90;;;;;;5072667;28;20186;-83
2022/06/26 03:11:22;;;;;;;5.38;3.70;;;16.70;99.90;;;;;;5074527;28;20167;-83
2022/06/26 03:13:48;;;;;;;4.03;2.75;;;16.70;99.90;;;;;;5074313;28;20175;-83
2022/06/26 03:16:14;;;;;;;4.18;3.20;;;16.70;99.90;;;;;;5072654;28;20228;-84
2022/06/26 03:18:39;;;;;;;3.17;2.40;;;16.70;99.90;;;;;;5073739;28;20861;-84
2022/06/26 03:21:05;;;;;;;4.55;2.83;;;16.80;99.90;;;;;;5073781;28;20706;-83
2022/06/26 03:26:15;;;;;;;3.53;2.53;;;16.90;99.90;;;;;;5072774;28;20167;-84
2022/06/26 03:28:41;;;;;;;4.80;3.15;;;17.00;99.90;;;;;;5072330;28;20183;-84
2022/06/26 03:31:06;;;;;;;3.08;2.40;;;17.00;99.90;;;;;;5055675;28;20682;-83
2022/06/26 03:33:32;;;;;;;5.43;2.72;;;17.00;99.90;;;;;;5073808;28;20175;-83
2022/06/26 03:35:58;;;;;;;3.28;2.47;;;;;;;;;;5055771;28;20674;-83
2022/06/26 03:38:24;;;;;;;3.88;2.53;;;17.10;99.90;;;;;;5095730;28;20214;-83
2022/06/26 03:40:50;;;;;;;3.30;2.55;;;17.20;99.90;;;;;;5097436;28;20230;-85
2022/06/26 03:43:15;;;;;;;4.50;2.60;;;17.30;99.90;;;;;;5098074;28;20199;-83
2022/06/26 03:45:41;;;;;;;3.85;2.72;;;;;;;;;;5098220;28;20231;-83
2022/06/26 03:48:07;;;;;;;3.13;2.58;;;17.30;99.90;;;;;;5093583;28;20187;-84
2022/06/26 03:50:33;;;;;;;4.15;2.60;;;17.40;99.90;;;;;;5074010;28;20163;-84
2022/06/26 03:52:59;;;;;;;3.60;2.45;;;17.50;99.90;;;;;;5055616;28;20183;-84
2022/06/26 03:55:24;;;;;;;3.58;2.58;;;17.50;99.90;;;;;;5073608;28;20171;-84
2022/06/26 03:57:50;;;;;;;5.00;2.45;;;17.60;99.90;;;;;;5072495;28;20294;-84
2022/06/26 04:00:17;;;;;;;3.05;2.08;;;17.70;99.90;;;;;;5074445;28;20171;-83
2022/06/26 04:02:43;;;;;;;4.00;2.65;;;17.70;99.90;;;;;;5066959;28;20179;-84
2022/06/26 04:05:09;;;;;;;3.22;2.55;;;17.10;99.90;;;;;;5051754;28;20202;-83
2022/06/26 04:07:34;;;;;;;5.43;3.22;;;17.80;99.90;;;;;;5057957;28;20620;-83
2022/06/26 04:10:00;;;;;;;3.38;2.50;;;17.90;99.90;;;;;;5072819;28;20643;-83
2022/06/26 04:12:26;;;;;;;2.45;2.25;;;18.00;99.90;;;;;;5072712;28;20183;-83
2022/06/26 04:14:52;;;;;;;3.22;2.45;;;18.10;99.90;;;;;;5073145;28;20168;-84
2022/06/26 04:17:17;;;;;;;3.40;2.83;;;18.20;99.90;;;;;;5073317;28;20199;-84
2022/06/26 04:19:43;;;;;;;3.13;2.33;;;18.20;99.90;;;;;;5073094;28;20249;-83
2022/06/26 04:22:09;;;;;;;6.50;2.78;;;18.40;99.90;;;;;;5072786;28;20206;-83
2022/06/26 04:24:34;;;;;;;5.65;2.25;;;18.40;99.90;;;;;;5073016;28;20179;-83
2022/06/26 04:27:00;;;;;;;5.18;2.60;;;18.50;99.90;;;;;;5072686;28;20217;-84
2022/06/26 04:29:26;;;;;;;3.15;2.58;;;18.60;99.90;;;;;;5072445;28;21529;-84
2022/06/26 04:31:51;;;;;;;4.50;2.28;;;18.70;99.90;;;;;;5071597;28;20171;-84
2022/06/26 04:34:17;;;;;;;3.45;2.50;;;18.80;99.90;;;;;;5073066;28;20262;-83
2022/06/26 04:36:43;;;;;;;3.22;2.40;;;18.90;99.90;;;;;;5072802;28;20168;-83
2022/06/26 04:39:09;;;;;;;3.78;2.38;;;19.00;99.90;;;;;;5071700;28;20652;-83
2022/06/26 04:41:34;;;;;;;3.83;2.33;;;19.10;99.90;;;;;;5054765;28;20183;-83
2022/06/26 04:44:05;;;;;;;3.85;2.47;;;19.20;99.90;;;;;;5072816;28;20198;-83
2022/06/26 04:46:31;;;;;;;5.20;2.25;;;19.30;99.90;;;;;;5073373;28;20159;-83
2022/06/26 04:48:58;;;;;;;3.45;2.50;;;19.50;99.90;;;;;;5071485;28;20222;-84
2022/06/26 04:51:23;;;;;;;4.65;2.55;;;19.60;99.90;;;;;;5072804;28;20258;-83
2022/06/26 04:53:49;;;;;;;3.75;2.78;;;19.70;99.90;;;;;;5070594;28;20266;-83
2022/06/26 04:56:15;;;;;;;2.53;1.60;;;19.80;99.90;;;;;;5072568;28;20202;-84
2022/06/26 04:58:41;;;;;;;2.60;2.30;;;19.80;99.90;;;;;;5049659;28;20243;-83
2022/06/26 05:01:07;;;;;;;3.45;2.58;;;19.90;99.90;;;;;;5052612;28;20225;-83
2022/06/26 05:03:33;;;;;;;3.33;2.25;;;20.00;99.90;;;;;;5071300;28;20211;-83
2022/06/26 05:05:59;;;;;;;2.60;1.90;;;20.10;99.90;;;;;;5071890;28;20207;-84
2022/06/26 05:08:24;;;;;;;3.03;2.13;;;20.20;99.90;;;;;;5071727;28;20630;-83
2022/06/26 05:10:50;;;;;;;2.42;1.92;;;20.20;99.90;;;;;;5074034;28;20171;-84
2022/06/26 05:13:15;;;;;;;2.90;2.38;;;20.40;99.90;;;;;;5074936;28;20576;-84
2022/06/26 05:15:41;;;;;;;4.10;2.20;;;20.40;99.90;;;;;;5075061;28;20651;-84
2022/06/26 05:18:07;;;;;;;2.45;1.77;;;20.50;99.90;;;;;;5075821;28;20239;-85
2022/06/26 05:20:33;;;;;;;2.72;2.13;;;20.60;99.90;;;;;;5075687;28;20180;-84
2022/06/26 05:22:58;;;;;;;1.85;1.73;;;20.70;99.90;;;;;;5070380;28;20549;-85
2022/06/26 05:25:24;;;;;;;3.08;2.15;;;20.80;99.90;;;;;;5055157;28;20657;-85
2022/06/26 05:27:50;;;;;;;3.67;2.17;;;20.90;99.90;;;;;;5054096;28;20195;-85
2022/06/26 05:30:15;;;;;;;4.78;2.88;;;21.00;99.90;;;;;;5054929;28;20172;-85
2022/06/26 05:32:41;;;;;;;2.90;2.33;;;21.10;99.90;;;;;;5055151;28;20279;-85
2022/06/26 05:35:07;;;;;;;2.58;2.03;;;21.30;99.90;;;;;;5059187;28;20186;-84
2022/06/26 05:37:33;;;;;;;3.33;2.38;;;21.40;99.90;;;;;;5055716;28;20700;-84
2022/06/26 05:39:58;;;;;;;2.20;1.90;;;21.50;99.90;;;;;;5074718;28;20179;-85
2022/06/26 05:42:24;;;;;;;3.65;2.38;;;21.60;99.90;;;;;;5062102;28;20187;-84
2022/06/26 05:44:50;;;;;;;3.47;2.40;;;21.70;99.90;;;;;;5074177;28;20295;-84
2022/06/26 05:47:15;;;;;;;2.70;2.35;;;21.80;99.90;;;;;;5073603;28;20264;-84
2022/06/26 05:49:41;;;;;;;3.35;2.08;;;;;;;;;;5073949;28;20702;-84
2022/06/26 05:52:07;;;;;;;2.78;2.38;;;22.10;99.90;;;;;;5061351;28;20278;-85
2022/06/26 05:54:33;;;;;;;2.40;1.80;;;22.20;99.90;;;;;;5043238;28;20233;-84
2022/06/26 05:56:58;;;;;;;2.30;2.10;;;22.30;99.90;;;;;;5058361;28;20233;-84
2022/06/26 05:59:24;;;;;;;2.03;1.63;;;22.40;99.90;;;;;;5061530;28;20859;-84
2022/06/26 06:01:49;;;;;;;3.17;1.80;;;22.50;99.90;;;;;;5056509;28;20245;-85
2022/06/26 06:04:15;;;;;;;2.95;1.98;;;22.70;99.90;;;;;;5070177;28;20179;-85
2022/06/26 06:06:41;;;;;;;2.40;1.95;;;22.70;99.90;;;;;;5062946;28;20296;-85
2022/06/26 06:09:07;;;;;;;2.63;2.20;;;22.90;99.90;;;;;;5055357;28;20191;-85
2022/06/26 06:11:32;;;;;;;2.70;1.92;;;23.00;99.90;;;;;;5053718;28;20576;-85
2022/06/26 06:13:58;;;;;;;2.50;1.95;;;23.10;99.90;;;;;;5058423;28;20539;-85
2022/06/26 06:16:23;;;;;;;4.13;2.30;;;23.20;99.90;;;;;;5067117;28;20214;-86
2022/06/26 06:18:49;;;;;;;5.63;2.28;;;23.30;99.90;;;;;;5067994;28;20288;-88
2022/06/26 06:21:15;;;;;;;2.35;1.70;;;23.50;99.90;;;;;;5047005;28;20667;-87
2022/06/26 06:23:42;;;;;;;2.25;2.05;;;23.60;99.90;;;;;;5062942;28;20648;-86
2022/06/26 06:26:09;;;;;;;3.15;2.10;;;23.70;99.90;;;;;;5069074;28;20215;-86
2022/06/26 06:28:35;;;;;;;2.42;1.70;;;23.70;99.90;;;;;;5063982;28;20257;-86
2022/06/26 06:31:00;;;;;;;2.47;2.05;;;23.80;99.90;;;;;;5064839;28;20176;-86
2022/06/26 06:33:26;;;;;;;3.80;2.22;;;23.80;99.90;;;;;;5052838;28;20188;-85
2022/06/26 06:35:54;;;;;;;2.38;1.90;;;23.80;99.90;;;;;;5069690;28;20190;-85
2022/06/26 06:38:23;;;;;;;2.63;1.92;;;23.90;99.90;;;;;;5062038;28;20252;-87
2022/06/26 06:40:49;;;;;;;4.18;2.05;;;24.00;99.90;;;;;;5066933;28;20195;-86
2022/06/26 06:43:15;;;;;;;2.40;1.98;;;24.20;99.90;;;;;;5067340;28;20187;-86
2022/06/26 06:45:40;;;;;;;2.38;1.88;;;24.20;99.90;;;;;;5067163;28;20643;-87
2022/06/26 06:48:06;;;;;;;2.75;2.00;;;24.30;99.90;;;;;;5046673;28;20191;-87
2022/06/26 06:50:32;;;;;;;3.67;2.67;;;24.30;99.90;;;;;;5068762;28;20670;-86
2022/06/26 06:52:58;;;;;;;2.78;2.20;;;24.50;99.90;;;;;;5067152;28;20305;-86
2022/06/26 06:55:24;;;;;;;2.30;1.92;;;24.70;99.90;;;;;;5063220;28;20258;-87
2022/06/26 06:57:50;;;;;;;1.52;1.38;;;24.70;99.90;;;;;;5057381;28;20210;-86
2022/06/26 07:00:16;;;;;;;2.55;1.77;;;24.90;99.90;;;;;;5058116;28;20198;-86
2022/06/26 07:02:42;;;;;;;1.92;1.33;;;25.00;99.90;;;;;;5068035;28;20667;-85
2022/06/26 07:05:08;;;;;;;2.67;2.10;;;25.00;99.90;;;;;;5067229;28;20187;-86
2022/06/26 07:07:36;;;;;;;2.92;2.00;;;25.10;99.90;;;;;;5053976;28;20198;-84
2022/06/26 07:10:02;;;;;;;3.30;2.10;;;25.20;99.90;;;;;;5076746;28;20184;-86
2022/06/26 07:12:28;;;;;;;2.67;1.80;;;25.30;99.90;;;;;;5067406;28;20546;-85
2022/06/26 07:14:54;;;;;;;1.60;1.50;;;25.30;99.90;;;;;;5051984;28;20187;-84
2022/06/26 07:17:22;;;;;;;1.92;1.70;;;25.30;99.90;;;;;;5069641;28;20183;-84
2022/06/26 07:19:48;;;;;;;2.53;1.80;;;;;;;;;;5055996;28;20179;-86
2022/06/26 07:22:13;;;;;;;1.67;1.58;;;25.60;98.50;;;;;;5064335;28;20199;-85
2022/06/26 07:24:39;;;;;;;2.35;1.80;;;25.60;97.00;;;;;;5053142;28;20179;-85
2022/06/26 07:27:05;;;;;;;2.10;1.40;;;25.70;95.90;;;;;;5069956;28;20695;-85
2022/06/26 07:29:31;;;;;;;2.30;1.30;;;25.70;94.80;;;;;;5053210;28;20286;-85
2022/06/26 07:31:57;;;;;;;2.78;1.90;;;25.80;95.20;;;;;;5060841;28;20606;-87
2022/06/26 07:34:24;;;;;;;1.80;1.60;;;25.90;94.80;;;;;;5066155;28;20196;-86
2022/06/26 07:36:50;;;;;;;1.88;1.75;;;25.90;94.50;;;;;;5071697;28;20191;-86
2022/06/26 07:39:18;;;;;;;1.90;1.60;;;26.10;95.50;;;;;;5067462;28;20235;-86
2022/06/26 07:41:44;;;;;;;6.32;1.67;;;26.30;95.80;;;;;;5069558;28;20188;-86
2022/06/26 07:44:10;;;;;;;1.88;1.67;;;26.40;94.20;;;;;;5066164;28;20175;-86
2022/06/26 07:46:37;;;;;;;2.85;1.77;;;26.30;93.40;;;;;;5062073;28;20186;-86
2022/06/26 07:49:03;;;;;;;2.20;1.85;;;26.30;94.00;;;;;;5062033;28;20182;-87
2022/06/26 07:51:29;;;;;;;2.05;1.67;;;;;;;;;;5069660;28;20199;-87
2022/06/26 07:53:55;;;;;;;2.22;1.85;;;26.50;91.00;;;;;;5070304;28;20284;-86
2022/06/26 07:56:21;;;;;;;2.72;1.75;;;26.70;91.80;;;;;;5071146;28;20184;-87
2022/06/26 07:58:47;;;;;;;1.83;1.63;;;;;;;;;;5069715;28;20291;-87
2022/06/26 08:01:13;;;;;;;2.70;1.70;;;26.80;91.80;;;;;;5070388;28;20274;-86
2022/06/26 08:03:38;;;;;;;2.13;1.60;;;26.90;93.00;;;;;;5053966;28;20703;-87
2022/06/26 08:06:04;;;;;;;4.53;1.67;;;27.00;90.60;;;;;;5054335;28;20532;-88
2022/06/26 08:08:30;;;;;;;2.08;1.63;;;27.00;90.40;;;;;;5063306;28;20286;-87
2022/06/26 08:10:55;;;;;;;1.77;1.58;;;27.20;89.40;;;;;;5068648;28;20195;-87
2022/06/26 08:13:21;;;;;;;1.88;1.73;;;27.20;89.40;;;;;;5085860;28;20239;-84
2022/06/26 08:15:47;;;;;;;1.65;1.52;;;27.30;88.60;;;;;;5058472;28;20228;-87
2022/06/26 08:18:13;;;;;;;2.17;1.60;;;27.30;86.40;;;;;;5067481;28;20642;-87
2022/06/26 08:20:38;;;;;;;3.30;1.88;;;27.30;85.10;;;;;;5071874;28;20302;-88
2022/06/26 08:23:04;;;;;;;2.05;1.73;;;27.40;85.60;;;;;;5083773;28;20187;-85
2022/06/26 08:25:30;;;;;;;1.35;1.23;;;27.40;83.10;;;;;;5061426;28;20191;-84
2022/06/26 08:27:59;;;;;;;1.77;1.52;;;27.50;81.20;;;;;;5070490;28;20214;-87
2022/06/26 08:30:25;;;;;;;1.95;1.45;;;27.60;80.20;;;;;;5049623;28;20571;-85
2022/06/26 08:32:51;;;;;;;1.90;1.60;;;27.50;80.50;;;;;;5055188;28;20187;-86
2022/06/26 08:35:16;;;;;;;2.25;1.33;;;27.70;82.00;;;;;;5038915;28;20543;-85
2022/06/26 08:37:42;;;;;;;1.65;1.33;;;27.70;82.30;;;;;;5051490;28;20200;-86
2022/06/26 08:40:11;;;;;;;1.58;1.45;;;28.20;82.30;;;;;;5054872;28;20346;-87
2022/06/26 08:42:39;;;;;;;2.00;1.77;;;27.80;82.50;;;;;;5065751;28;20182;-86
2022/06/26 08:45:05;;;;;;;2.08;1.40;;;27.90;81.30;;;;;;5053918;28;20191;-84
2022/06/26 08:47:38;;;;;;;1.85;1.40;;;27.60;81.40;;;;;;5070248;28;20256;-88
2022/06/26 08:50:05;;;;;;;3.58;1.55;;;28.00;80.10;;;;;;5073293;28;20191;-85
2022/06/26 08:52:31;;;;;;;2.63;1.40;;;28.00;78.70;;;;;;5066985;28;20693;-84
2022/06/26 08:54:57;;;;;;;3.13;1.70;;;28.00;76.80;;;;;;5072468;28;20182;-83
2022/06/26 08:57:23;;;;;;;2.08;1.55;;;27.90;78.70;;;;;;5069267;28;20674;-84
2022/06/26 08:59:49;;;;;;;2.20;1.40;;;28.10;78.90;;;;;;5052663;28;20195;-84
2022/06/26 09:02:14;;;;;;;1.50;1.40;;;28.20;77.60;;;;;;5073538;28;20183;-84
2022/06/26 09:04:40;;;;;;;1.88;1.40;;;28.20;76.00;;;;;;5052860;28;20184;-85
2022/06/26 09:07:07;;;;;;;2.17;1.80;;;28.20;73.40;;;;;;5069847;28;20191;-85
2022/06/26 09:09:32;;;;;;;1.40;1.30;;;28.40;74.10;;;;;;5065842;28;20663;-86
2022/06/26 09:12:01;;;;;;;1.42;1.23;;;28.40;75.50;;;;;;5070100;28;20199;-85
2022/06/26 09:14:29;;;;;;;2.13;1.38;;;28.50;74.70;;;;;;5073227;28;20640;-85
2022/06/26 09:16:56;;;;;;;2.38;1.65;;;28.60;75.20;;;;;;5044592;28;20546;-84
2022/06/26 09:19:26;;;;;;;1.60;1.50;;;28.70;75.00;;;;;;5054310;28;20236;-87
2022/06/26 09:22:03;;;;;;;2.25;1.35;;;28.90;70.20;;;;;;5055369;28;20183;-84
2022/06/26 09:24:28;;;;;;;3.30;1.55;;;29.00;69.30;;;;;;5056453;28;20170;-84
2022/06/26 09:27:06;;;;;;;1.58;1.23;;;29.30;70.00;;;;;;5038351;28;20247;-84
2022/06/26 09:29:32;;;;;;;3.60;1.40;;;29.40;67.30;;;;;;5067655;28;20272;-85
2022/06/26 09:32:09;;;;;;;4.72;1.08;;;29.30;68.20;;;;;;5074992;28;20256;-85
2022/06/26 09:34:35;;;;;;;1.92;1.65;;;29.30;66.50;;;;;;5070991;28;20263;-85
2022/06/26 09:37:03;;;;;;;1.60;1.40;;;29.30;66.60;;;;;;5055873;28;20258;-88
2022/06/26 09:39:31;;;;;;;3.63;1.92;;;29.50;65.80;;;;;;5063052;28;20297;-87
2022/06/26 09:41:57;;;;;;;1.50;1.38;;;;;;;;;;5065107;28;20713;-85
2022/06/26 09:44:24;;;;;;;2.35;1.50;;;;;;;;;;5063300;28;20188;-87
2022/06/26 09:46:57;;;;;;;2.15;1.58;;;29.00;65.10;;;;;;5063678;28;20167;-88
2022/06/26 09:49:23;;;;;;;2.60;1.80;;;29.40;65.20;;;;;;5066740;28;20277;-87
2022/06/26 09:51:49;;;;;;;2.08;1.50;;;29.50;65.10;;;;;;5052780;28;20268;-86
2022/06/26 09:54:15;;;;;;;1.95;1.65;;;29.60;66.80;;;;;;5066897;28;20719;-86
2022/06/26 09:56:42;;;;;;;2.15;1.60;;;29.60;64.20;;;;;;5067509;28;20265;-86
2022/06/26 09:59:08;;;;;;;1.50;1.40;;;;;;;;;;5063565;28;20290;-85
2022/06/26 10:07:06;;;;;;;1.52;1.42;;;30.00;60.30;;;;;;5067047;28;20580;-85
2022/06/26 10:09:34;;;;;;;2.33;1.58;;;30.00;59.50;;;;;;5072581;28;20179;-86
2022/06/26 10:12:02;;;;;;;1.77;1.60;;;29.90;63.30;;;;;;5067640;28;20199;-85
2022/06/26 10:14:36;;;;;;;1.60;1.50;;;30.00;62.40;;;;;;5071470;28;20179;-85
2022/06/26 10:17:21;;;;;;;1.40;1.23;;;30.20;60.20;;;;;;5069285;28;20198;-85
2022/06/26 10:19:59;;;;;;;1.40;1.30;;;30.30;59.80;;;;;;5068804;28;20231;-85
2022/06/26 10:22:25;;;;;;;1.33;1.23;;;30.20;60.60;;;;;;5070041;28;20190;-85
2022/06/26 10:24:56;;;;;;;2.30;1.60;;;30.50;61.60;;;;;;5069977;28;20277;-85
2022/06/26 10:27:42;;;;;;;1.98;1.50;;;30.50;59.30;;;;;;5070691;28;20183;-85
2022/06/26 10:30:13;;;;;;;1.77;1.52;;;30.70;61.30;;;;;;5081083;28;20699;-85
2022/06/26 10:32:39;;;;;;;2.70;1.30;;;;;;;;;;5071348;28;20171;-85
2022/06/26 10:35:06;;;;;;;1.55;1.30;;;30.80;58.80;;;;;;5048996;28;20595;-85
2022/06/26 10:37:48;;;;;;;2.00;1.70;;;30.90;59.60;;;;;;5071829;28;20211;-88
2022/06/26 10:43:13;;;;;;;2.28;1.60;;;31.10;58.10;;;;;;5077072;28;20209;-87
2022/06/26 10:45:41;;;;;;;2.20;1.75;;;31.10;58.60;;;;;;5073231;28;20172;-88
2022/06/26 10:48:18;;;;;;;1.85;1.75;;;31.30;57.40;;;;;;5073297;28;20179;-87
2022/06/26 10:50:45;;;;;;;1.73;1.50;;;;;;;;;;5072281;28;20294;-87
2022/06/26 10:53:16;;;;;;;5.20;1.73;;;31.40;56.70;;;;;;5068787;28;20263;-86
2022/06/26 10:55:47;;;;;;;2.25;1.45;;;31.50;56.30;;;;;;5071365;28;20201;-86
2022/06/26 10:58:22;;;;;;;1.88;1.40;;;31.50;56.20;;;;;;5070246;28;20205;-85
2022/06/26 11:00:49;;;;;;;2.38;1.90;;;31.50;57.50;;;;;;5071069;28;20179;-85
2022/06/26 11:03:16;;;;;;;5.18;1.85;;;31.20;55.50;;;;;;5070906;28;20175;-85
2022/06/26 11:05:54;;;;;;;2.90;1.50;;;30.90;56.90;;;;;;5067325;28;20178;-86
2022/06/26 11:08:32;;;;;;;1.83;1.67;;;31.10;57.30;;;;;;5059490;28;20183;-87
2022/06/26 11:11:27;;;;;;;1.58;1.48;;;31.20;56.60;;;;;;5069744;28;20252;-86
2022/06/26 11:13:53;;;;;;;1.92;1.58;;;31.30;56.70;;;;;;5064791;28;20205;-86
2022/06/26 11:16:38;;;;;;;1.65;1.40;;;31.30;56.50;;;;;;5067338;28;20190;-85
2022/06/26 11:19:07;;;;;;;3.50;2.38;;;31.30;56.40;;;;;;5068441;28;20235;-85
2022/06/26 11:21:33;;;;;;;1.92;1.63;;;31.10;56.20;;;;;;5065259;28;20187;-85
2022/06/26 11:24:00;;;;;;;1.95;1.75;;;31.00;56.80;;;;;;5062369;28;20181;-84
2022/06/26 11:26:31;;;;;;;1.75;1.40;;;30.50;56.40;;;;;;5062038;28;20184;-85
2022/06/26 11:29:03;;;;;;;1.73;1.55;;;31.30;56.30;;;;;;5052282;28;20211;-84
2022/06/26 11:31:31;;;;;;;2.25;1.77;;;31.30;57.10;;;;;;5073012;28;20163;-84
2022/06/26 11:34:10;;;;;;;2.08;1.88;;;31.30;56.50;;;;;;5073459;28;20305;-84
2022/06/26 11:36:36;;;;;;;2.35;1.65;;;31.30;56.40;;;;;;5072748;28;20179;-87
2022/06/26 11:39:02;;;;;;;1.75;1.45;;;31.30;57.30;;;;;;5071313;28;20621;-84
2022/06/26 11:41:28;;;;;;;1.33;1.23;;;31.40;56.40;;;;;;5048535;28;20210;-85
2022/06/26 11:43:56;;;;;;;1.90;1.60;;;31.20;55.40;;;;;;5062871;28;20218;-85
2022/06/26 11:46:23;;;;;;;2.22;1.50;;;31.10;55.90;;;;;;5065616;28;20186;-85
2022/06/26 11:48:50;;;;;;;1.65;1.50;;;31.10;56.50;;;;;;5067877;28;20183;-85
2022/06/26 11:51:19;;;;;;;3.65;1.98;;;31.10;56.30;;;;;;5058947;28;20184;-85
2022/06/26 11:53:47;;;;;;;2.45;2.25;;;30.90;58.10;;;;;;5066127;28;20167;-84
2022/06/26 11:56:21;;;;;;;2.10;1.90;;;30.80;56.20;;;;;;5061840;28;21538;-86
2022/06/26 11:58:49;;;;;;;2.38;1.95;;;30.80;57.70;;;;;;5065078;28;20199;-83
2022/06/26 12:01:16;;;;;;;2.15;1.60;;;30.60;56.10;;;;;;5073230;28;20178;-84
2022/06/26 12:03:47;;;;;;;2.53;1.92;;;30.50;58.40;;;;;;5071548;28;20236;-83
2022/06/26 12:06:36;;;;;;;2.05;1.70;;;30.40;57.00;;;;;;5070648;28;20175;-83
2022/06/26 12:09:19;;;;;;;2.08;1.67;;;30.10;57.00;;;;;;5063286;28;20199;-83
2022/06/26 12:11:47;;;;;;;1.60;1.50;;;30.20;57.10;;;;;;5072487;28;20238;-84
2022/06/26 12:14:15;;;;;;;1.65;1.52;;;30.20;57.60;;;;;;5072662;28;20186;-83
2022/06/26 12:16:51;;;;;;;1.45;1.30;;;30.30;55.70;;;;;;5070392;28;20258;-84
2022/06/26 12:19:17;;;;;;;2.65;1.80;;;30.20;57.30;;;;;;5069229;28;20230;-83
2022/06/26 12:21:58;;;;;;;2.17;1.95;;;30.20;56.50;;;;;;5073975;28;20175;-89
2022/06/26 12:24:24;;;;;;;1.40;1.30;;;30.40;56.40;;;;;;5068827;28;20175;-85
2022/06/26 12:26:49;;;;;;;3.83;2.75;;;30.40;56.00;;;;;;5074772;28;20183;-84
2022/06/26 12:29:18;;;;;;;2.00;1.60;;;30.40;56.10;;;;;;5076439;28;20191;-84
2022/06/26 12:31:44;;;;;;;1.50;1.40;;;30.50;57.20;;;;;;5075821;28;20257;-86
2022/06/26 12:34:10;;;;;;;2.28;1.40;;;30.50;55.80;;;;;;5058178;28;20262;-85
2022/06/26 12:36:37;;;;;;;4.82;3.25;;;30.50;56.20;;;;;;5075901;28;20277;-84
2022/06/26 12:39:04;;;;;;;3.83;1.88;;;30.50;56.90;;;;;;5074815;28;20301;-85
2022/06/26 12:41:30;;;;;;;1.73;1.27;;;30.40;56.50;;;;;;5075538;28;20645;-87
2022/06/26 12:43:59;;;;;;;2.08;1.80;;;30.20;56.00;;;;;;5073440;28;20186;-85
2022/06/26 12:46:25;;;;;;;1.83;1.42;;;29.80;56.20;;;;;;5075229;28;20206;-86
2022/06/26 12:48:51;;;;;;;3.95;1.83;;;29.80;57.60;;;;;;5074850;28;20676;-85
2022/06/26 12:51:17;;;;;;;2.20;1.80;;;30.00;57.80;;;;;;5074227;28;20278;-85
2022/06/26 12:53:43;;;;;;;1.60;1.50;;;30.20;56.20;;;;;;5075437;28;20552;-85
2022/06/26 12:56:11;;;;;;;2.45;1.63;;;30.40;56.50;;;;;;5071170;28;20175;-85
2022/06/26 12:58:37;;;;;;;1.75;1.60;;;30.50;55.60;;;;;;5073432;28;20241;-86
2022/06/26 13:01:05;;;;;;;1.63;1.23;;;30.80;55.30;;;;;;5073617;28;20175;-88
2022/06/26 13:03:30;;;;;;;1.48;1.38;;;30.80;55.90;;;;;;5073731;28;20278;-85
2022/06/26 13:05:56;;;;;;;1.60;1.45;;;30.90;54.30;;;;;;5073845;28;20259;-84